北海道・東北TAF電文


新千歳(RJCC)
6/13 14h
TAF RJCC 130505Z 1306/1412 17010KT 9999 FEW008 BKN015 BECMG
1307/1309 35011KT TEMPO 1312/1400 FEW003 BKN006 BECMG
1400/1403 17010KT TEMPO 1406/1412 FEW005 BKN008=

旭川(RJEC)
6/13 14h
TAF RJEC 130505Z 1306/1412 34010KT 9999 FEW008 BKN015 TEMPO
1309/1312 FEW005 BKN008 TEMPO 1312/1400 3000 BR FEW003
BKN006 BECMG 1400/1403 24005KT BECMG 1409/1412 32008KT=

帯広(RJCB)
6/13 16h
TAF AMD RJCB 130705Z 1307/1412 13011KT 9999 FEW008 BKN015
TEMPO 1307/1309 4000 TSRA BR FEW005 BKN008 FEW025CB
TEMPO 1310/1312 3000 BR FEW003 BKN005
TEMPO 1312/1321 0700 FG VV001
TEMPO 1321/1400 3000 BR FEW003 BKN005
TEMPO 1409/1412 FEW003 BKN006=

釧路(RJCK)
6/13 16h
TAF AMD RJCK 130742Z 1307/1412 03009KT 7000 -SHRA FEW003 BKN015
TEMPO 1307/1309 0700 TSRA FG BKN001 FEW025CB
TEMPO 1309/1318 0700 FG VV001
TEMPO 1318/1400 1500 BR FEW001 BKN003
BECMG 1400/1403 20006KT=

女満別(RJCM)
6/13 14h
TAF RJCM 130509Z 1306/1412 02008KT 9999 -SHRA FEW005 BKN015 TEMPO
1306/1309 3000 TSRA BR FEW003 BKN005 FEW025CB TEMPO
1309/1312 4000 -SHRA BR FEW003 BKN006 TEMPO 1312/1400
FEW002 BKN005=

函館(RJCH)
6/13 14h
TAF RJCH 130509Z 1306/1412 13005KT 9999 FEW008 BKN015 TEMPO
1315/1400 3000 BR FEW003 BKN006=

青森(RJSA)
6/13 14h
TAF RJSA 130507Z 1306/1412 04006KT 9999 FEW010 SCT020 BECMG
1308/1310 26006KT BECMG 1310/1312 FEW003 BKN008 TEMPO
1311/1321 1500 BR FEW001 BKN003 BECMG 1321/1400 FEW015
BKN030=

秋田(RJSK)
6/13 14h
TAF RJSK 130507Z 1306/1412 28008KT 9999 FEW005 SCT012 TEMPO
1310/1321 2000 BR FEW001 BKN005=

花巻(RJSI)
6/13 16h
TAF AMD RJSI 130744Z 1307/1412 21004KT 9999 FEW030
TEMPO 1307/1310 -TSRA FEW020 FEW025CB BKN030=

仙台(RJSS)
6/13 15h
TAF AMD RJSS 130608Z 1306/1412 15006KT 8000 -SHRA FEW030 TEMPO
1306/1310 4000 -TSRA BR FEW020 BKN025 FEW025CB BECMG
1311/1313 31004KT BECMG 1321/1400 12010KT TEMPO 1409/1412
FEW003 BKN005=

福島(RJSF)
6/13 14h
TAF RJSF 130510Z 1306/1412 14004KT 9999 FEW020 TEMPO 1306/1308 4000
-TSRA BR FEW008 BKN025 FEW025CB BECMG 1314/1316 01006KT
BECMG 1400/1403 24004KT=
Copyright(c) 2014 International Meteorological & Oceanographic Consultants Co,.Ltd. All Rights Reserved. Design by http://f-tpl.com